sensor_id;sensor_type;location;lat;lon;timestamp;temperature;humidity
12557;DHT22;6344;49.932;8.308;2023-08-20T00:02:18;22.60;99.90
12557;DHT22;6344;49.932;8.308;2023-08-20T00:04:46;22.50;99.90
12557;DHT22;6344;49.932;8.308;2023-08-20T00:07:12;22.40;99.90
12557;DHT22;6344;49.932;8.308;2023-08-20T00:09:41;22.30;99.90
12557;DHT22;6344;49.932;8.308;2023-08-20T00:12:07;22.20;99.90
12557;DHT22;6344;49.932;8.308;2023-08-20T00:14:54;22.20;99.90
12557;DHT22;6344;49.932;8.308;2023-08-20T00:17:21;22.30;99.90
12557;DHT22;6344;49.932;8.308;2023-08-20T00:19:50;22.40;99.90
12557;DHT22;6344;49.932;8.308;2023-08-20T00:22:16;22.30;99.90
12557;DHT22;6344;49.932;8.308;2023-08-20T00:24:43;22.20;99.90
12557;DHT22;6344;49.932;8.308;2023-08-20T00:27:10;22.20;99.90
12557;DHT22;6344;49.932;8.308;2023-08-20T00:29:36;22.20;99.90
12557;DHT22;6344;49.932;8.308;2023-08-20T00:32:04;22.10;99.90
12557;DHT22;6344;49.932;8.308;2023-08-20T00:34:31;22.10;99.90
12557;DHT22;6344;49.932;8.308;2023-08-20T00:36:57;22.20;99.90
12557;DHT22;6344;49.932;8.308;2023-08-20T00:39:24;22.20;99.90
12557;DHT22;6344;49.932;8.308;2023-08-20T00:41:50;22.10;99.90
12557;DHT22;6344;49.932;8.308;2023-08-20T00:44:17;22.10;99.90
12557;DHT22;6344;49.932;8.308;2023-08-20T00:46:43;22.00;99.90
12557;DHT22;6344;49.932;8.308;2023-08-20T00:49:11;22.00;99.90
12557;DHT22;6344;49.932;8.308;2023-08-20T00:51:38;21.90;99.90
12557;DHT22;6344;49.932;8.308;2023-08-20T00:54:05;21.90;99.90
12557;DHT22;6344;49.932;8.308;2023-08-20T00:56:31;21.90;99.90
12557;DHT22;6344;49.932;8.308;2023-08-20T00:58:58;21.80;99.90
12557;DHT22;6344;49.932;8.308;2023-08-20T01:01:25;21.80;99.90
12557;DHT22;6344;49.932;8.308;2023-08-20T01:03:51;21.80;99.90
12557;DHT22;6344;49.932;8.308;2023-08-20T01:06:22;21.80;99.90
12557;DHT22;6344;49.932;8.308;2023-08-20T01:08:50;21.80;99.90
12557;DHT22;6344;49.932;8.308;2023-08-20T01:11:21;21.70;99.90
12557;DHT22;6344;49.932;8.308;2023-08-20T01:13:51;21.60;99.90
12557;DHT22;6344;49.932;8.308;2023-08-20T01:16:20;21.50;99.90
12557;DHT22;6344;49.932;8.308;2023-08-20T01:18:47;21.40;99.90
12557;DHT22;6344;49.932;8.308;2023-08-20T01:21:18;21.30;99.90
12557;DHT22;6344;49.932;8.308;2023-08-20T01:23:58;21.30;99.90
12557;DHT22;6344;49.932;8.308;2023-08-20T01:26:35;21.20;99.90
12557;DHT22;6344;49.932;8.308;2023-08-20T01:29:08;21.10;99.90
12557;DHT22;6344;49.932;8.308;2023-08-20T01:31:36;21.00;99.90
12557;DHT22;6344;49.932;8.308;2023-08-20T01:34:03;20.90;99.90
12557;DHT22;6344;49.932;8.308;2023-08-20T01:36:30;20.80;99.90
12557;DHT22;6344;49.932;8.308;2023-08-20T01:38:56;20.80;99.90
12557;DHT22;6344;49.932;8.308;2023-08-20T01:41:23;20.80;99.90
12557;DHT22;6344;49.932;8.308;2023-08-20T01:43:49;20.90;99.90
12557;DHT22;6344;49.932;8.308;2023-08-20T01:46:17;20.80;99.90
12557;DHT22;6344;49.932;8.308;2023-08-20T01:48:44;20.70;99.90
12557;DHT22;6344;49.932;8.308;2023-08-20T01:51:10;20.60;99.90
12557;DHT22;6344;49.932;8.308;2023-08-20T01:53:37;20.50;99.90
12557;DHT22;6344;49.932;8.308;2023-08-20T01:56:03;20.50;99.90
12557;DHT22;6344;49.932;8.308;2023-08-20T01:58:30;20.40;99.90
12557;DHT22;6344;49.932;8.308;2023-08-20T02:00:57;20.40;99.90
12557;DHT22;6344;49.932;8.308;2023-08-20T02:03:25;20.50;99.90
12557;DHT22;6344;49.932;8.308;2023-08-20T02:05:52;20.50;99.90
12557;DHT22;6344;49.932;8.308;2023-08-20T02:08:18;20.40;99.90
12557;DHT22;6344;49.932;8.308;2023-08-20T02:10:45;20.30;99.90
12557;DHT22;6344;49.932;8.308;2023-08-20T02:13:11;20.30;99.90
12557;DHT22;6344;49.932;8.308;2023-08-20T02:15:38;20.40;99.90
12557;DHT22;6344;49.932;8.308;2023-08-20T02:18:05;20.30;99.90
12557;DHT22;6344;49.932;8.308;2023-08-20T02:20:32;20.40;99.90
12557;DHT22;6344;49.932;8.308;2023-08-20T02:22:59;20.30;99.90
12557;DHT22;6344;49.932;8.308;2023-08-20T02:25:26;20.30;99.90
12557;DHT22;6344;49.932;8.308;2023-08-20T02:27:52;20.40;99.90
12557;DHT22;6344;49.932;8.308;2023-08-20T02:30:19;20.50;99.90
12557;DHT22;6344;49.932;8.308;2023-08-20T02:32:46;20.50;99.90
12557;DHT22;6344;49.932;8.308;2023-08-20T02:35:12;20.40;99.90
12557;DHT22;6344;49.932;8.308;2023-08-20T02:37:42;20.40;99.90
12557;DHT22;6344;49.932;8.308;2023-08-20T02:40:09;20.30;99.90
12557;DHT22;6344;49.932;8.308;2023-08-20T02:42:36;20.20;99.90
12557;DHT22;6344;49.932;8.308;2023-08-20T02:45:03;20.20;99.90
12557;DHT22;6344;49.932;8.308;2023-08-20T02:47:30;20.10;99.90
12557;DHT22;6344;49.932;8.308;2023-08-20T02:49:56;20.10;99.90
12557;DHT22;6344;49.932;8.308;2023-08-20T02:52:23;20.00;99.90
12557;DHT22;6344;49.932;8.308;2023-08-20T02:54:51;20.00;99.90
12557;DHT22;6344;49.932;8.308;2023-08-20T02:57:17;20.10;99.90
12557;DHT22;6344;49.932;8.308;2023-08-20T02:59:44;20.00;99.90
12557;DHT22;6344;49.932;8.308;2023-08-20T03:02:10;19.90;99.90
12557;DHT22;6344;49.932;8.308;2023-08-20T03:04:37;19.90;99.90
12557;DHT22;6344;49.932;8.308;2023-08-20T03:07:03;19.90;99.90
12557;DHT22;6344;49.932;8.308;2023-08-20T03:09:30;19.90;99.90
12557;DHT22;6344;49.932;8.308;2023-08-20T03:11:58;19.80;99.90
12557;DHT22;6344;49.932;8.308;2023-08-20T03:14:25;19.70;99.90
12557;DHT22;6344;49.932;8.308;2023-08-20T03:16:51;19.70;99.90
12557;DHT22;6344;49.932;8.308;2023-08-20T03:19:18;19.70;99.90
12557;DHT22;6344;49.932;8.308;2023-08-20T03:21:44;19.70;99.90
12557;DHT22;6344;49.932;8.308;2023-08-20T03:24:11;19.70;99.90
12557;DHT22;6344;49.932;8.308;2023-08-20T03:26:37;19.60;99.90
12557;DHT22;6344;49.932;8.308;2023-08-20T03:29:05;19.70;99.90
12557;DHT22;6344;49.932;8.308;2023-08-20T03:31:32;19.50;99.90
12557;DHT22;6344;49.932;8.308;2023-08-20T03:33:58;19.60;99.90
12557;DHT22;6344;49.932;8.308;2023-08-20T03:36:25;19.50;99.90
12557;DHT22;6344;49.932;8.308;2023-08-20T03:38:51;19.50;99.90
12557;DHT22;6344;49.932;8.308;2023-08-20T03:41:18;19.60;99.90
12557;DHT22;6344;49.932;8.308;2023-08-20T03:43:45;19.70;99.90
12557;DHT22;6344;49.932;8.308;2023-08-20T03:46:12;19.70;99.90
12557;DHT22;6344;49.932;8.308;2023-08-20T03:48:39;19.50;99.90
12557;DHT22;6344;49.932;8.308;2023-08-20T03:51:05;19.50;99.90
12557;DHT22;6344;49.932;8.308;2023-08-20T03:53:32;19.40;99.90
12557;DHT22;6344;49.932;8.308;2023-08-20T03:55:58;19.50;99.90
12557;DHT22;6344;49.932;8.308;2023-08-20T03:58:25;19.50;99.90
12557;DHT22;6344;49.932;8.308;2023-08-20T04:00:52;19.60;99.90
12557;DHT22;6344;49.932;8.308;2023-08-20T04:03:19;19.70;99.90
12557;DHT22;6344;49.932;8.308;2023-08-20T04:05:46;19.80;99.90
12557;DHT22;6344;49.932;8.308;2023-08-20T04:08:13;19.90;99.90
12557;DHT22;6344;49.932;8.308;2023-08-20T04:10:42;20.00;99.90
12557;DHT22;6344;49.932;8.308;2023-08-20T04:13:09;20.10;99.90
12557;DHT22;6344;49.932;8.308;2023-08-20T04:15:35;20.30;99.90
12557;DHT22;6344;49.932;8.308;2023-08-20T04:18:02;20.30;99.90
12557;DHT22;6344;49.932;8.308;2023-08-20T04:20:30;20.40;99.90
12557;DHT22;6344;49.932;8.308;2023-08-20T04:22:56;20.30;99.90
12557;DHT22;6344;49.932;8.308;2023-08-20T04:25:23;20.20;99.90
12557;DHT22;6344;49.932;8.308;2023-08-20T04:27:49;20.20;99.90
12557;DHT22;6344;49.932;8.308;2023-08-20T04:30:16;20.10;99.90
12557;DHT22;6344;49.932;8.308;2023-08-20T04:32:43;20.10;99.90
12557;DHT22;6344;49.932;8.308;2023-08-20T04:35:09;20.10;99.90
12557;DHT22;6344;49.932;8.308;2023-08-20T04:37:37;20.20;99.90
12557;DHT22;6344;49.932;8.308;2023-08-20T04:40:04;20.30;99.90
12557;DHT22;6344;49.932;8.308;2023-08-20T04:42:31;20.30;99.90
12557;DHT22;6344;49.932;8.308;2023-08-20T04:44:57;20.40;99.90
12557;DHT22;6344;49.932;8.308;2023-08-20T04:47:24;20.30;99.90
12557;DHT22;6344;49.932;8.308;2023-08-20T04:49:51;20.40;99.90
12557;DHT22;6344;49.932;8.308;2023-08-20T04:52:17;20.40;99.90
12557;DHT22;6344;49.932;8.308;2023-08-20T04:54:45;20.50;99.90
12557;DHT22;6344;49.932;8.308;2023-08-20T04:57:12;20.50;99.90
12557;DHT22;6344;49.932;8.308;2023-08-20T04:59:38;20.50;99.90
12557;DHT22;6344;49.932;8.308;2023-08-20T05:02:08;20.70;99.90
12557;DHT22;6344;49.932;8.308;2023-08-20T05:04:34;20.90;99.90
12557;DHT22;6344;49.932;8.308;2023-08-20T05:07:01;20.90;99.90
12557;DHT22;6344;49.932;8.308;2023-08-20T05:09:28;21.00;99.90
12557;DHT22;6344;49.932;8.308;2023-08-20T05:11:56;21.20;99.90
12557;DHT22;6344;49.932;8.308;2023-08-20T05:14:22;21.40;99.90
12557;DHT22;6344;49.932;8.308;2023-08-20T05:16:49;21.60;99.90
12557;DHT22;6344;49.932;8.308;2023-08-20T05:19:16;21.60;99.90
12557;DHT22;6344;49.932;8.308;2023-08-20T05:21:42;21.80;99.90
12557;DHT22;6344;49.932;8.308;2023-08-20T05:24:09;21.80;99.90
12557;DHT22;6344;49.932;8.308;2023-08-20T05:26:35;22.00;99.90
12557;DHT22;6344;49.932;8.308;2023-08-20T05:29:03;22.00;99.90
12557;DHT22;6344;49.932;8.308;2023-08-20T05:31:30;22.20;99.90
12557;DHT22;6344;49.932;8.308;2023-08-20T05:33:56;22.30;99.90
12557;DHT22;6344;49.932;8.308;2023-08-20T05:36:23;22.50;99.90
12557;DHT22;6344;49.932;8.308;2023-08-20T05:38:49;22.70;99.90
12557;DHT22;6344;49.932;8.308;2023-08-20T05:41:16;22.90;99.90
12557;DHT22;6344;49.932;8.308;2023-08-20T05:43:42;23.10;99.90
12557;DHT22;6344;49.932;8.308;2023-08-20T05:46:10;23.40;99.90
12557;DHT22;6344;49.932;8.308;2023-08-20T05:48:37;23.30;99.90
12557;DHT22;6344;49.932;8.308;2023-08-20T05:51:03;23.30;99.90
12557;DHT22;6344;49.932;8.308;2023-08-20T05:53:30;23.60;99.90
12557;DHT22;6344;49.932;8.308;2023-08-20T05:55:56;23.60;99.90
12557;DHT22;6344;49.932;8.308;2023-08-20T05:58:23;23.70;99.90
12557;DHT22;6344;49.932;8.308;2023-08-20T06:00:49;23.60;99.90
12557;DHT22;6344;49.932;8.308;2023-08-20T06:03:17;23.60;99.90
12557;DHT22;6344;49.932;8.308;2023-08-20T06:05:44;24.00;99.90
12557;DHT22;6344;49.932;8.308;2023-08-20T06:08:10;24.30;99.90
12557;DHT22;6344;49.932;8.308;2023-08-20T06:10:37;24.60;99.90
12557;DHT22;6344;49.932;8.308;2023-08-20T06:13:03;24.70;99.90
12557;DHT22;6344;49.932;8.308;2023-08-20T06:15:30;24.70;99.90
12557;DHT22;6344;49.932;8.308;2023-08-20T06:17:56;24.70;99.90
12557;DHT22;6344;49.932;8.308;2023-08-20T06:20:25;24.70;99.90
12557;DHT22;6344;49.932;8.308;2023-08-20T06:22:51;24.80;99.90
12557;DHT22;6344;49.932;8.308;2023-08-20T06:25:18;25.30;99.90
12557;DHT22;6344;49.932;8.308;2023-08-20T06:27:44;25.80;99.90
12557;DHT22;6344;49.932;8.308;2023-08-20T06:30:11;26.10;99.90
12557;DHT22;6344;49.932;8.308;2023-08-20T06:32:38;26.10;99.90
12557;DHT22;6344;49.932;8.308;2023-08-20T06:35:05;26.50;99.90
12557;DHT22;6344;49.932;8.308;2023-08-20T06:37:33;26.80;99.90
12557;DHT22;6344;49.932;8.308;2023-08-20T06:39:59;27.00;99.90
12557;DHT22;6344;49.932;8.308;2023-08-20T06:42:26;27.00;99.90
12557;DHT22;6344;49.932;8.308;2023-08-20T06:44:52;26.90;99.90
12557;DHT22;6344;49.932;8.308;2023-08-20T06:47:19;27.00;99.90
12557;DHT22;6344;49.932;8.308;2023-08-20T06:49:45;27.50;99.90
12557;DHT22;6344;49.932;8.308;2023-08-20T06:52:12;27.80;99.90
12557;DHT22;6344;49.932;8.308;2023-08-20T06:54:40;28.00;99.90
12557;DHT22;6344;49.932;8.308;2023-08-20T06:57:06;28.70;99.90
12557;DHT22;6344;49.932;8.308;2023-08-20T06:59:33;29.00;99.90
12557;DHT22;6344;49.932;8.308;2023-08-20T07:01:59;29.00;99.90
12557;DHT22;6344;49.932;8.308;2023-08-20T07:04:26;29.00;99.90
12557;DHT22;6344;49.932;8.308;2023-08-20T07:06:52;28.00;99.90
12557;DHT22;6344;49.932;8.308;2023-08-20T07:09:19;27.50;99.90
12557;DHT22;6344;49.932;8.308;2023-08-20T07:11:47;27.30;99.90
12557;DHT22;6344;49.932;8.308;2023-08-20T07:14:13;27.30;99.90
12557;DHT22;6344;49.932;8.308;2023-08-20T07:16:40;27.40;99.90
12557;DHT22;6344;49.932;8.308;2023-08-20T07:19:06;27.50;99.90
12557;DHT22;6344;49.932;8.308;2023-08-20T07:21:33;28.00;99.90
12557;DHT22;6344;49.932;8.308;2023-08-20T07:24:00;28.40;99.90
12557;DHT22;6344;49.932;8.308;2023-08-20T07:26:27;28.70;99.90
12557;DHT22;6344;49.932;8.308;2023-08-20T07:28:55;28.60;99.90
12557;DHT22;6344;49.932;8.308;2023-08-20T07:31:25;28.90;99.90
12557;DHT22;6344;49.932;8.308;2023-08-20T07:33:52;29.10;99.90
12557;DHT22;6344;49.932;8.308;2023-08-20T07:36:20;29.30;99.90
12557;DHT22;6344;49.932;8.308;2023-08-20T07:38:48;29.40;99.90
12557;DHT22;6344;49.932;8.308;2023-08-20T07:41:14;29.50;99.90
12557;DHT22;6344;49.932;8.308;2023-08-20T07:43:41;29.60;99.90
12557;DHT22;6344;49.932;8.308;2023-08-20T07:46:09;30.10;99.90
12557;DHT22;6344;49.932;8.308;2023-08-20T07:48:36;29.60;99.90
12557;DHT22;6344;49.932;8.308;2023-08-20T07:51:02;29.90;99.90
12557;DHT22;6344;49.932;8.308;2023-08-20T07:53:29;30.10;99.90
12557;DHT22;6344;49.932;8.308;2023-08-20T07:55:56;30.40;99.90
12557;DHT22;6344;49.932;8.308;2023-08-20T07:58:23;30.80;99.90
12557;DHT22;6344;49.932;8.308;2023-08-20T08:00:49;30.20;99.90
12557;DHT22;6344;49.932;8.308;2023-08-20T08:03:17;30.40;99.90
12557;DHT22;6344;49.932;8.308;2023-08-20T08:05:45;30.80;99.90
12557;DHT22;6344;49.932;8.308;2023-08-20T08:08:12;30.60;99.90
12557;DHT22;6344;49.932;8.308;2023-08-20T08:10:38;30.50;99.90
12557;DHT22;6344;49.932;8.308;2023-08-20T08:13:05;30.60;99.90
12557;DHT22;6344;49.932;8.308;2023-08-20T08:15:32;31.00;99.90
12557;DHT22;6344;49.932;8.308;2023-08-20T08:17:58;31.20;99.90
12557;DHT22;6344;49.932;8.308;2023-08-20T08:20:26;31.10;99.90
12557;DHT22;6344;49.932;8.308;2023-08-20T08:22:52;30.90;99.90
12557;DHT22;6344;49.932;8.308;2023-08-20T08:25:19;30.60;99.90
12557;DHT22;6344;49.932;8.308;2023-08-20T08:27:45;31.20;99.90
12557;DHT22;6344;49.932;8.308;2023-08-20T08:30:12;30.90;99.90
12557;DHT22;6344;49.932;8.308;2023-08-20T08:32:39;31.40;99.90
12557;DHT22;6344;49.932;8.308;2023-08-20T08:35:06;31.00;99.90
12557;DHT22;6344;49.932;8.308;2023-08-20T08:37:34;31.20;99.90
12557;DHT22;6344;49.932;8.308;2023-08-20T08:40:01;31.50;99.90
12557;DHT22;6344;49.932;8.308;2023-08-20T08:42:31;32.20;99.90
12557;DHT22;6344;49.932;8.308;2023-08-20T08:44:58;32.50;99.90
12557;DHT22;6344;49.932;8.308;2023-08-20T08:47:25;32.50;99.90
12557;DHT22;6344;49.932;8.308;2023-08-20T08:49:54;31.50;99.90
12557;DHT22;6344;49.932;8.308;2023-08-20T08:52:22;31.70;99.90
12557;DHT22;6344;49.932;8.308;2023-08-20T08:54:50;32.40;99.90
12557;DHT22;6344;49.932;8.308;2023-08-20T08:57:17;32.80;99.90
12557;DHT22;6344;49.932;8.308;2023-08-20T08:59:43;33.00;99.90
12557;DHT22;6344;49.932;8.308;2023-08-20T09:02:11;33.20;99.90
12557;DHT22;6344;49.932;8.308;2023-08-20T09:04:38;33.60;99.90
12557;DHT22;6344;49.932;8.308;2023-08-20T09:07:05;33.90;99.90
12557;DHT22;6344;49.932;8.308;2023-08-20T09:09:31;33.80;99.90
12557;DHT22;6344;49.932;8.308;2023-08-20T09:11:59;34.10;99.90
12557;DHT22;6344;49.932;8.308;2023-08-20T09:14:27;34.10;99.90
12557;DHT22;6344;49.932;8.308;2023-08-20T09:16:54;34.30;99.90
12557;DHT22;6344;49.932;8.308;2023-08-20T09:19:21;34.10;99.90
12557;DHT22;6344;49.932;8.308;2023-08-20T09:21:48;34.50;99.90
12557;DHT22;6344;49.932;8.308;2023-08-20T09:24:14;34.50;99.90
12557;DHT22;6344;49.932;8.308;2023-08-20T09:26:44;35.20;99.90
12557;DHT22;6344;49.932;8.308;2023-08-20T09:29:12;35.00;99.90
12557;DHT22;6344;49.932;8.308;2023-08-20T09:31:39;35.50;99.90
12557;DHT22;6344;49.932;8.308;2023-08-20T09:34:06;35.60;99.90
12557;DHT22;6344;49.932;8.308;2023-08-20T09:36:33;36.00;99.90
12557;DHT22;6344;49.932;8.308;2023-08-20T09:38:59;35.60;99.90
12557;DHT22;6344;49.932;8.308;2023-08-20T09:41:26;35.60;99.90
12557;DHT22;6344;49.932;8.308;2023-08-20T09:43:55;35.00;99.90
12557;DHT22;6344;49.932;8.308;2023-08-20T09:46:23;35.90;99.90
12557;DHT22;6344;49.932;8.308;2023-08-20T09:48:50;36.60;99.90
12557;DHT22;6344;49.932;8.308;2023-08-20T09:51:18;36.50;99.90
12557;DHT22;6344;49.932;8.308;2023-08-20T09:53:48;36.60;99.90
12557;DHT22;6344;49.932;8.308;2023-08-20T09:56:15;37.40;99.90
12557;DHT22;6344;49.932;8.308;2023-08-20T09:58:45;36.40;99.90
12557;DHT22;6344;49.932;8.308;2023-08-20T10:01:12;36.60;99.90
12557;DHT22;6344;49.932;8.308;2023-08-20T10:03:40;36.90;99.90
12557;DHT22;6344;49.932;8.308;2023-08-20T10:06:07;36.80;99.90
12557;DHT22;6344;49.932;8.308;2023-08-20T10:08:34;36.80;99.90
12557;DHT22;6344;49.932;8.308;2023-08-20T10:11:01;36.50;99.90
12557;DHT22;6344;49.932;8.308;2023-08-20T10:13:28;37.00;99.90
12557;DHT22;6344;49.932;8.308;2023-08-20T10:15:54;37.40;99.90
12557;DHT22;6344;49.932;8.308;2023-08-20T10:18:21;37.30;99.90
12557;DHT22;6344;49.932;8.308;2023-08-20T10:20:50;38.10;99.90
12557;DHT22;6344;49.932;8.308;2023-08-20T10:23:19;38.10;99.90
12557;DHT22;6344;49.932;8.308;2023-08-20T10:25:46;37.60;99.90
12557;DHT22;6344;49.932;8.308;2023-08-20T10:28:13;37.60;99.90
12557;DHT22;6344;49.932;8.308;2023-08-20T10:33:22;37.80;99.90
12557;DHT22;6344;49.932;8.308;2023-08-20T10:35:48;38.00;99.90
12557;DHT22;6344;49.932;8.308;2023-08-20T10:38:16;37.70;99.90
12557;DHT22;6344;49.932;8.308;2023-08-20T10:40:47;37.80;99.90
12557;DHT22;6344;49.932;8.308;2023-08-20T10:43:23;37.80;99.90
12557;DHT22;6344;49.932;8.308;2023-08-20T10:46:01;38.10;99.90
12557;DHT22;6344;49.932;8.308;2023-08-20T10:48:28;38.10;99.90
12557;DHT22;6344;49.932;8.308;2023-08-20T10:50:55;38.30;99.90
12557;DHT22;6344;49.932;8.308;2023-08-20T10:53:23;38.20;99.90
12557;DHT22;6344;49.932;8.308;2023-08-20T10:55:50;37.70;99.90
12557;DHT22;6344;49.932;8.308;2023-08-20T10:58:17;38.20;99.90
12557;DHT22;6344;49.932;8.308;2023-08-20T11:00:44;37.70;99.90
12557;DHT22;6344;49.932;8.308;2023-08-20T11:03:10;38.10;99.90
12557;DHT22;6344;49.932;8.308;2023-08-20T11:05:37;38.30;99.90
12557;DHT22;6344;49.932;8.308;2023-08-20T11:08:04;38.10;99.90
12557;DHT22;6344;49.932;8.308;2023-08-20T11:10:34;37.90;99.90
12557;DHT22;6344;49.932;8.308;2023-08-20T11:13:01;37.60;99.90
12557;DHT22;6344;49.932;8.308;2023-08-20T11:15:28;38.00;99.90
12557;DHT22;6344;49.932;8.308;2023-08-20T11:17:55;38.40;99.90
12557;DHT22;6344;49.932;8.308;2023-08-20T11:20:21;37.40;99.90
12557;DHT22;6344;49.932;8.308;2023-08-20T11:22:48;38.10;99.90
12557;DHT22;6344;49.932;8.308;2023-08-20T11:25:14;38.20;99.90
12557;DHT22;6344;49.932;8.308;2023-08-20T11:27:42;37.50;99.90
12557;DHT22;6344;49.932;8.308;2023-08-20T11:30:09;37.60;99.90
12557;DHT22;6344;49.932;8.308;2023-08-20T11:32:37;37.90;99.90
12557;DHT22;6344;49.932;8.308;2023-08-20T11:35:04;38.50;99.90
12557;DHT22;6344;49.932;8.308;2023-08-20T11:37:32;38.30;99.90
12557;DHT22;6344;49.932;8.308;2023-08-20T11:39:59;39.20;99.90
12557;DHT22;6344;49.932;8.308;2023-08-20T11:42:25;39.20;99.90
12557;DHT22;6344;49.932;8.308;2023-08-20T11:44:54;38.60;99.90
12557;DHT22;6344;49.932;8.308;2023-08-20T11:47:21;39.00;99.90
12557;DHT22;6344;49.932;8.308;2023-08-20T11:49:48;39.00;99.90
12557;DHT22;6344;49.932;8.308;2023-08-20T11:52:27;39.10;99.90
12557;DHT22;6344;49.932;8.308;2023-08-20T11:54:56;39.20;99.90
12557;DHT22;6344;49.932;8.308;2023-08-20T11:57:22;39.40;99.90
12557;DHT22;6344;49.932;8.308;2023-08-20T11:59:49;39.70;99.90
12557;DHT22;6344;49.932;8.308;2023-08-20T12:02:24;39.50;99.90
12557;DHT22;6344;49.932;8.308;2023-08-20T12:04:50;39.70;99.90
12557;DHT22;6344;49.932;8.308;2023-08-20T12:07:17;39.70;99.90
12557;DHT22;6344;49.932;8.308;2023-08-20T12:09:43;39.90;99.90
12557;DHT22;6344;49.932;8.308;2023-08-20T12:12:10;39.50;99.90
12557;DHT22;6344;49.932;8.308;2023-08-20T12:14:36;39.20;99.90
12557;DHT22;6344;49.932;8.308;2023-08-20T12:17:03;38.60;99.90
12557;DHT22;6344;49.932;8.308;2023-08-20T12:19:31;38.50;99.90
12557;DHT22;6344;49.932;8.308;2023-08-20T12:21:57;39.10;99.90
12557;DHT22;6344;49.932;8.308;2023-08-20T12:24:24;39.40;99.90
12557;DHT22;6344;49.932;8.308;2023-08-20T12:26:51;39.10;99.90
12557;DHT22;6344;49.932;8.308;2023-08-20T12:29:18;40.30;99.90
12557;DHT22;6344;49.932;8.308;2023-08-20T12:31:45;40.10;1.00
12557;DHT22;6344;49.932;8.308;2023-08-20T12:34:11;39.80;1.00
12557;DHT22;6344;49.932;8.308;2023-08-20T12:36:39;40.10;1.00
12557;DHT22;6344;49.932;8.308;2023-08-20T12:39:06;40.50;1.00
12557;DHT22;6344;49.932;8.308;2023-08-20T12:41:33;40.00;1.00
12557;DHT22;6344;49.932;8.308;2023-08-20T12:44:01;40.10;1.00
12557;DHT22;6344;49.932;8.308;2023-08-20T12:46:27;40.40;99.90
12557;DHT22;6344;49.932;8.308;2023-08-20T12:48:54;40.60;99.90
12557;DHT22;6344;49.932;8.308;2023-08-20T12:51:21;40.40;40.60
12557;DHT22;6344;49.932;8.308;2023-08-20T12:53:49;40.60;1.00
12557;DHT22;6344;49.932;8.308;2023-08-20T12:56:15;40.10;99.90
12557;DHT22;6344;49.932;8.308;2023-08-20T12:58:42;40.20;1.00
12557;DHT22;6344;49.932;8.308;2023-08-20T13:01:08;39.10;1.00
12557;DHT22;6344;49.932;8.308;2023-08-20T13:03:35;39.30;1.00
12557;DHT22;6344;49.932;8.308;2023-08-20T13:06:02;39.50;1.00
12557;DHT22;6344;49.932;8.308;2023-08-20T13:08:29;40.60;1.00
12557;DHT22;6344;49.932;8.308;2023-08-20T13:10:58;40.80;1.00
12557;DHT22;6344;49.932;8.308;2023-08-20T13:13:25;40.40;1.00
12557;DHT22;6344;49.932;8.308;2023-08-20T13:15:52;41.20;1.00
12557;DHT22;6344;49.932;8.308;2023-08-20T13:18:19;40.50;1.00
12557;DHT22;6344;49.932;8.308;2023-08-20T13:20:50;41.30;1.00
12557;DHT22;6344;49.932;8.308;2023-08-20T13:23:17;41.20;1.00
12557;DHT22;6344;49.932;8.308;2023-08-20T13:25:43;40.70;1.00
12557;DHT22;6344;49.932;8.308;2023-08-20T13:28:11;40.70;1.00
12557;DHT22;6344;49.932;8.308;2023-08-20T13:30:38;40.70;1.00
12557;DHT22;6344;49.932;8.308;2023-08-20T13:33:04;40.50;1.00
12557;DHT22;6344;49.932;8.308;2023-08-20T13:35:31;40.40;1.00
12557;DHT22;6344;49.932;8.308;2023-08-20T13:37:57;39.90;1.00
12557;DHT22;6344;49.932;8.308;2023-08-20T13:40:24;40.10;1.00
12557;DHT22;6344;49.932;8.308;2023-08-20T13:42:51;40.20;1.00
12557;DHT22;6344;49.932;8.308;2023-08-20T13:45:18;40.60;1.00
12557;DHT22;6344;49.932;8.308;2023-08-20T13:47:45;40.50;1.00
12557;DHT22;6344;49.932;8.308;2023-08-20T13:50:11;40.90;1.00
12557;DHT22;6344;49.932;8.308;2023-08-20T13:52:38;41.20;1.00
12557;DHT22;6344;49.932;8.308;2023-08-20T13:55:05;41.30;1.00
12557;DHT22;6344;49.932;8.308;2023-08-20T13:57:31;41.50;1.00
12557;DHT22;6344;49.932;8.308;2023-08-20T13:59:58;41.20;1.00
12557;DHT22;6344;49.932;8.308;2023-08-20T14:02:26;40.70;99.90
12557;DHT22;6344;49.932;8.308;2023-08-20T14:04:52;40.60;1.00
12557;DHT22;6344;49.932;8.308;2023-08-20T14:07:19;39.90;1.00
12557;DHT22;6344;49.932;8.308;2023-08-20T14:09:45;40.60;1.00
12557;DHT22;6344;49.932;8.308;2023-08-20T14:12:12;41.40;99.90
12557;DHT22;6344;49.932;8.308;2023-08-20T14:14:38;41.60;1.00
12557;DHT22;6344;49.932;8.308;2023-08-20T14:17:05;40.90;1.00
12557;DHT22;6344;49.932;8.308;2023-08-20T14:19:33;40.90;1.00
12557;DHT22;6344;49.932;8.308;2023-08-20T14:21:59;41.20;1.00
12557;DHT22;6344;49.932;8.308;2023-08-20T14:24:26;41.30;1.00
12557;DHT22;6344;49.932;8.308;2023-08-20T14:29:19;41.50;1.00
12557;DHT22;6344;49.932;8.308;2023-08-20T14:31:46;42.00;1.00
12557;DHT22;6344;49.932;8.308;2023-08-20T14:34:12;41.10;1.00
12557;DHT22;6344;49.932;8.308;2023-08-20T14:36:40;41.40;1.00
12557;DHT22;6344;49.932;8.308;2023-08-20T14:39:06;41.50;1.00
12557;DHT22;6344;49.932;8.308;2023-08-20T14:41:33;42.00;1.00
12557;DHT22;6344;49.932;8.308;2023-08-20T14:44:00;41.90;1.00
12557;DHT22;6344;49.932;8.308;2023-08-20T14:46:27;41.90;1.00
12557;DHT22;6344;49.932;8.308;2023-08-20T14:48:53;41.80;1.00
12557;DHT22;6344;49.932;8.308;2023-08-20T14:51:20;41.30;1.00
12557;DHT22;6344;49.932;8.308;2023-08-20T14:53:48;41.00;1.00
12557;DHT22;6344;49.932;8.308;2023-08-20T14:56:14;40.70;1.00
12557;DHT22;6344;49.932;8.308;2023-08-20T14:58:41;40.10;1.00
12557;DHT22;6344;49.932;8.308;2023-08-20T15:01:07;39.20;1.00
12557;DHT22;6344;49.932;8.308;2023-08-20T15:03:34;39.60;1.00
12557;DHT22;6344;49.932;8.308;2023-08-20T15:06:00;39.70;1.00
12557;DHT22;6344;49.932;8.308;2023-08-20T15:08:27;39.60;1.00
12557;DHT22;6344;49.932;8.308;2023-08-20T15:10:58;39.70;1.00
12557;DHT22;6344;49.932;8.308;2023-08-20T15:13:26;39.20;1.00
12557;DHT22;6344;49.932;8.308;2023-08-20T15:15:52;39.10;1.00
12557;DHT22;6344;49.932;8.308;2023-08-20T15:18:19;38.80;1.00
12557;DHT22;6344;49.932;8.308;2023-08-20T15:20:51;38.20;1.00
12557;DHT22;6344;49.932;8.308;2023-08-20T15:23:19;38.10;1.00
12557;DHT22;6344;49.932;8.308;2023-08-20T15:25:46;38.80;1.00
12557;DHT22;6344;49.932;8.308;2023-08-20T15:28:14;38.80;1.00
12557;DHT22;6344;49.932;8.308;2023-08-20T15:30:40;39.20;1.00
12557;DHT22;6344;49.932;8.308;2023-08-20T15:33:07;39.80;1.00
12557;DHT22;6344;49.932;8.308;2023-08-20T15:35:33;40.30;1.00
12557;DHT22;6344;49.932;8.308;2023-08-20T15:38:00;39.50;1.00
12557;DHT22;6344;49.932;8.308;2023-08-20T15:40:27;39.20;1.00
12557;DHT22;6344;49.932;8.308;2023-08-20T15:42:54;39.40;1.00
12557;DHT22;6344;49.932;8.308;2023-08-20T15:45:22;39.40;1.00
12557;DHT22;6344;49.932;8.308;2023-08-20T15:47:48;39.40;1.00
12557;DHT22;6344;49.932;8.308;2023-08-20T15:50:15;39.40;1.00
12557;DHT22;6344;49.932;8.308;2023-08-20T15:52:41;39.60;1.00
12557;DHT22;6344;49.932;8.308;2023-08-20T15:55:08;39.40;1.00